Time;durP1;ratioP1;P1;durP2;ratioP2;P2;SDS_P1;SDS_P2;PMS_P1;PMS_P2;Temp;Humidity;BMP_temperature;BMP_pressure;BME280_temperature;BME280_humidity;BME280_pressure;Samples;Min_cycle;Max_cycle;Signal;HPM_P1;HPM_P2
2022/08/24 00:00:33;;;;;;;6.93;4.70;;;15.50;76.60;;;;;;5011373;28;20449;-64
2022/08/24 00:03:01;;;;;;;6.00;4.27;;;15.40;76.40;;;;;;4993178;28;20451;-64
2022/08/24 00:05:30;;;;;;;5.50;4.07;;;15.40;76.80;;;;;;4993009;28;20448;-64
2022/08/24 00:07:58;;;;;;;6.00;3.90;;;15.40;76.60;;;;;;5013092;28;20438;-64
2022/08/24 00:10:25;;;;;;;6.70;4.33;;;15.40;77.10;;;;;;5012678;28;20825;-69
2022/08/24 00:12:53;;;;;;;5.00;4.60;;;15.40;77.10;;;;;;5011862;28;20442;-65
2022/08/24 00:15:20;;;;;;;7.60;4.13;;;15.40;76.70;;;;;;5012717;28;20834;-64
2022/08/24 00:17:47;;;;;;;4.07;3.67;;;15.30;76.80;;;;;;4994066;28;20626;-64
2022/08/24 00:20:14;;;;;;;4.50;4.10;;;15.30;77.00;;;;;;4993121;28;20448;-64
2022/08/24 00:22:43;;;;;;;5.47;3.60;;;15.30;76.80;;;;;;5009967;28;20493;-65
2022/08/24 00:25:12;;;;;;;4.20;3.37;;;15.20;77.20;;;;;;5012529;28;20474;-66
2022/08/24 00:27:41;;;;;;;4.70;3.97;;;15.20;77.40;;;;;;4993896;28;20735;-65
2022/08/24 00:30:14;;;;;;;5.30;4.80;;;15.20;77.50;;;;;;4992831;28;20495;-64
2022/08/24 00:32:42;;;;;;;5.73;4.03;;;15.10;77.10;;;;;;5004748;28;20440;-64
2022/08/24 00:35:10;;;;;;;5.23;4.27;;;15.00;77.00;;;;;;4993092;28;20779;-64
2022/08/24 00:37:38;;;;;;;4.50;4.10;;;14.90;77.80;;;;;;5007629;28;20454;-64
2022/08/24 00:40:20;;;;;;;4.23;3.83;;;14.90;77.90;;;;;;5012321;28;20933;-64
2022/08/24 00:42:48;;;;;;;3.70;3.40;;;15.00;78.20;;;;;;4990075;28;20509;-70
2022/08/24 00:45:16;;;;;;;4.93;3.80;;;14.90;77.80;;;;;;4993006;28;21005;-64
2022/08/24 00:47:49;;;;;;;4.63;3.70;;;14.90;78.00;;;;;;5007205;28;20439;-66
2022/08/24 00:50:23;;;;;;;4.17;3.73;;;14.90;78.00;;;;;;5015730;28;20540;-64
2022/08/24 00:52:55;;;;;;;3.73;3.40;;;14.80;78.40;;;;;;5001156;28;20486;-65
2022/08/24 00:55:28;;;;;;;9.87;3.93;;;14.70;79.00;;;;;;4977368;28;20480;-64
2022/08/24 00:58:07;;;;;;;4.70;4.10;;;14.70;79.20;;;;;;5007602;28;20445;-64
2022/08/24 01:00:41;;;;;;;5.50;4.23;;;14.70;79.20;;;;;;5016558;28;20438;-64
2022/08/24 01:03:09;;;;;;;6.07;4.17;;;14.70;79.30;;;;;;5000767;28;20447;-64
2022/08/24 01:05:38;;;;;;;8.00;3.80;;;14.70;79.30;;;;;;5016550;28;20434;-65
2022/08/24 01:08:09;;;;;;;6.17;4.27;;;14.70;79.60;;;;;;5000086;28;20435;-65
2022/08/24 01:10:41;;;;;;;4.90;3.20;;;14.70;79.20;;;;;;4996730;28;20490;-64
2022/08/24 01:13:10;;;;;;;4.60;3.80;;;14.70;79.50;;;;;;5011867;28;20808;-66
2022/08/24 01:15:45;;;;;;;6.87;3.90;;;14.60;79.00;;;;;;5016567;28;20930;-64
2022/08/24 01:21:18;;;;;;;4.10;3.33;;;14.60;79.20;;;;;;4994983;28;20484;-64
2022/08/24 01:23:49;;;;;;;5.10;4.33;;;14.60;79.40;;;;;;4995802;28;20910;-65
2022/08/24 01:26:19;;;;;;;4.63;3.70;;;14.60;79.20;;;;;;4998187;28;20446;-64
2022/08/24 01:28:51;;;;;;;6.53;3.50;;;14.50;78.90;;;;;;5015779;28;20430;-64
2022/08/24 01:31:20;;;;;;;6.17;3.70;;;14.50;78.80;;;;;;5013412;28;20493;-64
2022/08/24 01:33:49;;;;;;;6.90;3.83;;;14.40;79.10;;;;;;4996221;28;20450;-64
2022/08/24 01:36:26;;;;;;;5.63;4.40;;;14.50;79.30;;;;;;5000764;28;20442;-64
2022/08/24 01:38:55;;;;;;;4.07;3.50;;;14.40;78.90;;;;;;5015616;28;20502;-65
2022/08/24 01:41:23;;;;;;;4.77;3.60;;;14.40;79.40;;;;;;5013976;28;20438;-64
2022/08/24 01:43:50;;;;;;;4.23;3.03;;;14.40;79.40;;;;;;5015409;28;20862;-64
2022/08/24 01:46:17;;;;;;;7.47;3.93;;;14.30;79.30;;;;;;5007671;28;20527;-67
2022/08/24 01:48:44;;;;;;;5.60;4.17;;;14.30;79.00;;;;;;5015538;28;20566;-64
2022/08/24 01:51:11;;;;;;;4.83;4.30;;;14.20;79.30;;;;;;4994241;28;20482;-64
2022/08/24 01:53:39;;;;;;;4.77;4.07;;;14.10;79.60;;;;;;5011028;28;20445;-65
2022/08/24 01:56:08;;;;;;;5.60;3.50;;;14.10;80.00;;;;;;5014779;28;20447;-64
2022/08/24 01:58:35;;;;;;;6.10;4.60;;;14.10;79.70;;;;;;5015397;28;20474;-64
2022/08/24 02:01:02;;;;;;;5.18;4.63;;;14.00;79.90;;;;;;5012342;28;20444;-64
2022/08/24 02:03:30;;;;;;;4.63;4.23;;;14.00;80.70;;;;;;4995624;28;20196;-65
2022/08/24 02:05:57;;;;;;;4.27;3.63;;;13.80;81.60;;;;;;4996139;28;20543;-64
2022/08/24 02:08:24;;;;;;;4.53;4.13;;;13.70;81.80;;;;;;5011341;28;20454;-64
2022/08/24 02:10:52;;;;;;;6.00;4.50;;;13.70;81.90;;;;;;4995277;28;20480;-66
2022/08/24 02:13:20;;;;;;;6.13;4.53;;;13.60;82.20;;;;;;5014831;28;20534;-64
2022/08/24 02:15:48;;;;;;;6.20;4.35;;;13.50;83.00;;;;;;5014859;28;20461;-65
2022/08/24 02:18:15;;;;;;;5.65;4.20;;;13.50;83.90;;;;;;4996038;28;20323;-64
2022/08/24 02:20:43;;;;;;;5.63;4.83;;;13.60;83.90;;;;;;4995521;28;20632;-64
2022/08/24 02:23:10;;;;;;;7.28;4.10;;;13.60;83.90;;;;;;4996002;28;20486;-64
2022/08/24 02:25:38;;;;;;;4.80;4.30;;;13.70;84.00;;;;;;4995223;28;20699;-64
2022/08/24 02:28:05;;;;;;;4.33;3.93;;;13.70;83.90;;;;;;5014308;28;20443;-66
2022/08/24 02:30:34;;;;;;;6.13;4.10;;;13.70;83.70;;;;;;5014632;28;20561;-64
2022/08/24 02:33:01;;;;;;;4.45;3.95;;;13.70;83.70;;;;;;5013228;28;20443;-64
2022/08/24 02:35:30;;;;;;;5.10;4.60;;;13.70;83.40;;;;;;5014822;28;20199;-64
2022/08/24 02:37:57;;;;;;;4.67;4.27;;;13.70;83.50;;;;;;4995895;28;20196;-64
2022/08/24 02:40:25;;;;;;;5.60;4.22;;;13.80;83.40;;;;;;4995084;28;20458;-64
2022/08/24 02:42:52;;;;;;;4.93;3.90;;;13.80;83.30;;;;;;5011522;28;20243;-65
2022/08/24 02:45:20;;;;;;;4.93;4.00;;;13.80;83.30;;;;;;4995674;28;20235;-64
2022/08/24 02:47:48;;;;;;;4.53;3.75;;;13.80;83.00;;;;;;5010363;28;20489;-64
2022/08/24 02:50:18;;;;;;;4.57;3.77;;;13.80;82.60;;;;;;5014391;28;20219;-64
2022/08/24 02:52:46;;;;;;;4.07;3.27;;;13.80;82.00;;;;;;4999147;28;20451;-64
2022/08/24 02:55:16;;;;;;;4.73;4.33;;;13.70;81.30;;;;;;4994613;28;20444;-64
2022/08/24 02:57:43;;;;;;;5.07;4.18;;;13.60;81.40;;;;;;5007442;28;20443;-64
2022/08/24 03:00:14;;;;;;;4.90;3.60;;;13.50;81.90;;;;;;4994694;28;20250;-65
2022/08/24 03:02:44;;;;;;;4.40;3.80;;;13.40;81.80;;;;;;4994084;28;20443;-64
2022/08/24 03:05:13;;;;;;;6.40;4.13;;;13.30;81.40;;;;;;4994666;28;20601;-64
2022/08/24 03:07:40;;;;;;;5.80;4.15;;;13.20;81.20;;;;;;4993941;28;20443;-65
2022/08/24 03:10:08;;;;;;;5.82;4.10;;;13.00;82.20;;;;;;4994442;28;20200;-64
2022/08/24 03:12:35;;;;;;;4.38;3.55;;;12.90;83.10;;;;;;4993131;28;20268;-64
2022/08/24 03:15:04;;;;;;;4.32;3.88;;;12.80;83.20;;;;;;4994323;28;20204;-64
2022/08/24 03:17:32;;;;;;;4.75;4.22;;;12.90;83.70;;;;;;4994130;28;20561;-64
2022/08/24 03:20:00;;;;;;;5.90;4.40;;;12.90;83.80;;;;;;4993918;28;20189;-64
2022/08/24 03:22:28;;;;;;;4.28;3.88;;;12.90;83.60;;;;;;4994011;28;20198;-64
2022/08/24 03:24:56;;;;;;;4.50;3.70;;;12.80;83.70;;;;;;4993572;28;20212;-64
2022/08/24 03:27:24;;;;;;;5.32;3.65;;;12.80;83.70;;;;;;4994143;28;20587;-64
2022/08/24 03:29:51;;;;;;;8.30;4.25;;;12.80;83.70;;;;;;4993883;28;20604;-64
2022/08/24 03:32:18;;;;;;;4.20;3.80;;;12.80;83.90;;;;;;4993824;28;20232;-64
2022/08/24 03:34:46;;;;;;;6.70;4.13;;;12.70;84.10;;;;;;4993477;28;20200;-64
2022/08/24 03:37:13;;;;;;;5.30;4.75;;;12.70;84.40;;;;;;4994296;28;20289;-64
2022/08/24 03:39:42;;;;;;;5.25;4.53;;;12.70;84.70;;;;;;4993650;28;20188;-64
2022/08/24 03:42:09;;;;;;;7.10;4.28;;;12.70;85.10;;;;;;4994029;28;20267;-64
2022/08/24 03:44:36;;;;;;;5.43;3.95;;;12.80;85.30;;;;;;4993538;28;20192;-65
2022/08/24 03:47:04;;;;;;;4.68;4.03;;;12.80;85.30;;;;;;4974642;28;20288;-64
2022/08/24 03:49:31;;;;;;;6.13;4.70;;;12.70;84.30;;;;;;4974362;28;20248;-64
2022/08/24 03:51:59;;;;;;;9.05;4.57;;;12.70;83.90;;;;;;4993879;28;20220;-64
2022/08/24 03:54:26;;;;;;;5.90;4.38;;;12.70;84.70;;;;;;4993695;28;20200;-64
2022/08/24 03:56:54;;;;;;;6.43;4.00;;;12.60;86.00;;;;;;5010367;28;20219;-64
2022/08/24 03:59:21;;;;;;;4.70;3.83;;;12.60;85.80;;;;;;5013167;28;20590;-64
2022/08/24 04:01:48;;;;;;;12.73;4.40;;;12.60;85.80;;;;;;4996812;28;20606;-64
2022/08/24 04:04:15;;;;;;;6.00;4.05;;;12.60;85.30;;;;;;4993368;28;20203;-64
2022/08/24 04:06:45;;;;;;;4.35;3.95;;;12.60;84.90;;;;;;5005493;28;20191;-65
2022/08/24 04:09:13;;;;;;;6.30;3.38;;;12.60;84.70;;;;;;4993469;28;20203;-64
2022/08/24 04:11:44;;;;;;;8.63;4.70;;;12.60;84.80;;;;;;5007029;28;20298;-64
2022/08/24 04:14:15;;;;;;;4.50;3.63;;;12.60;84.50;;;;;;5012991;28;20195;-64
2022/08/24 04:16:43;;;;;;;5.10;4.35;;;12.60;84.60;;;;;;4998848;28;20601;-64
2022/08/24 04:19:10;;;;;;;7.15;4.55;;;12.60;84.40;;;;;;4997473;28;20187;-64
2022/08/24 04:21:38;;;;;;;4.35;3.95;;;12.60;84.80;;;;;;5013026;28;20195;-64
2022/08/24 04:24:08;;;;;;;4.40;3.65;;;12.60;84.70;;;;;;4991118;28;20298;-65
2022/08/24 04:26:37;;;;;;;5.13;3.67;;;12.60;84.60;;;;;;4982739;28;20192;-66
2022/08/24 04:29:05;;;;;;;5.35;3.90;;;12.60;84.40;;;;;;4989889;28;20219;-64
2022/08/24 04:31:35;;;;;;;5.95;3.92;;;12.50;84.40;;;;;;4987329;28;20224;-65
2022/08/24 04:34:03;;;;;;;4.65;4.10;;;12.50;84.10;;;;;;4991048;28;20204;-64
2022/08/24 04:36:31;;;;;;;4.57;4.03;;;12.40;84.40;;;;;;4991232;28;20208;-64
2022/08/24 04:38:58;;;;;;;4.85;3.63;;;12.40;85.40;;;;;;4991486;28;20192;-64
2022/08/24 04:41:25;;;;;;;5.05;4.55;;;12.40;85.60;;;;;;4993421;28;20188;-64
2022/08/24 04:43:53;;;;;;;5.20;4.30;;;12.30;86.20;;;;;;4991286;28;20200;-64
2022/08/24 04:46:21;;;;;;;4.63;3.75;;;12.30;86.50;;;;;;4990260;28;20189;-64
2022/08/24 04:48:50;;;;;;;4.78;4.28;;;12.40;86.80;;;;;;4991206;28;20192;-65
2022/08/24 04:51:19;;;;;;;5.65;3.85;;;12.40;87.10;;;;;;4987233;28;20219;-67
2022/08/24 04:53:47;;;;;;;5.60;3.55;;;12.40;86.40;;;;;;4991452;28;20200;-64
2022/08/24 04:56:18;;;;;;;5.13;4.63;;;12.30;87.10;;;;;;4990779;28;20247;-65
2022/08/24 04:58:46;;;;;;;8.27;5.93;;;12.30;87.50;;;;;;4991078;28;20201;-67
2022/08/24 05:01:15;;;;;;;7.80;6.07;;;12.30;87.80;;;;;;4991417;28;20192;-65
2022/08/24 05:03:45;;;;;;;5.20;4.70;;;12.30;88.40;;;;;;4987773;28;20185;-64
2022/08/24 05:06:17;;;;;;;10.00;4.65;;;12.40;89.60;;;;;;4991364;28;20207;-64
2022/08/24 05:08:46;;;;;;;4.97;4.45;;;12.40;89.20;;;;;;4991110;28;20188;-65
2022/08/24 05:11:14;;;;;;;5.40;4.85;;;12.50;89.60;;;;;;4990535;28;20220;-64
2022/08/24 05:13:41;;;;;;;5.55;5.05;;;12.60;89.50;;;;;;4994452;28;20184;-65
2022/08/24 05:16:10;;;;;;;4.70;4.25;;;12.60;89.40;;;;;;4991337;28;20299;-64
2022/08/24 05:18:39;;;;;;;5.85;4.97;;;12.70;89.00;;;;;;4991106;28;20266;-65
2022/08/24 05:21:07;;;;;;;6.20;5.07;;;12.70;88.80;;;;;;4987039;28;20288;-64
2022/08/24 05:23:36;;;;;;;6.40;5.78;;;12.70;89.50;;;;;;4989993;28;20571;-65
2022/08/24 05:26:07;;;;;;;5.70;5.10;;;12.70;89.90;;;;;;4991113;28;20710;-65
2022/08/24 05:28:35;;;;;;;7.25;5.35;;;12.70;90.40;;;;;;4990880;28;20193;-64
2022/08/24 05:31:10;;;;;;;5.35;4.47;;;12.80;90.60;;;;;;4991199;28;20227;-64
2022/08/24 05:33:37;;;;;;;6.53;5.18;;;12.90;90.70;;;;;;4991058;28;20655;-65
2022/08/24 05:36:06;;;;;;;7.82;4.95;;;12.90;90.90;;;;;;4994375;28;20185;-64
2022/08/24 05:38:35;;;;;;;4.82;4.32;;;13.10;91.10;;;;;;4994532;28;20197;-64
2022/08/24 05:41:05;;;;;;;6.10;5.20;;;13.20;91.20;;;;;;4990837;28;20200;-64
2022/08/24 05:43:32;;;;;;;5.63;5.03;;;13.40;91.10;;;;;;4993431;28;20266;-64
2022/08/24 05:46:00;;;;;;;6.80;5.00;;;13.50;90.70;;;;;;4993845;28;20199;-64
2022/08/24 05:48:27;;;;;;;5.10;4.60;;;13.50;90.00;;;;;;4992805;28;20192;-66
2022/08/24 05:50:55;;;;;;;5.30;4.30;;;13.60;90.30;;;;;;4992327;28;20470;-66
2022/08/24 05:53:23;;;;;;;6.15;4.63;;;13.70;91.10;;;;;;4993024;28;20950;-65
2022/08/24 05:55:52;;;;;;;5.50;4.70;;;13.80;91.20;;;;;;4995989;28;20201;-64
2022/08/24 05:58:19;;;;;;;5.40;4.77;;;14.00;91.10;;;;;;4995995;28;20223;-64
2022/08/24 06:00:48;;;;;;;5.50;4.87;;;14.10;91.00;;;;;;4996125;28;20440;-65
2022/08/24 06:03:15;;;;;;;6.07;5.47;;;14.30;90.80;;;;;;4996039;28;20446;-65
2022/08/24 06:05:44;;;;;;;6.40;5.10;;;14.40;90.50;;;;;;4996009;28;20498;-65
2022/08/24 06:08:11;;;;;;;6.93;4.47;;;14.50;90.30;;;;;;4992537;28;20522;-65
2022/08/24 06:10:42;;;;;;;6.83;4.27;;;14.70;90.50;;;;;;5005750;28;20863;-64
2022/08/24 06:13:11;;;;;;;6.87;4.50;;;14.80;90.70;;;;;;5004411;28;20514;-64
2022/08/24 06:15:39;;;;;;;17.30;6.87;;;14.90;90.60;;;;;;5010950;28;20489;-64
2022/08/24 06:18:06;;;;;;;5.97;4.90;;;15.10;90.40;;;;;;5006167;28;20474;-64
2022/08/24 06:20:39;;;;;;;6.00;5.10;;;15.20;90.50;;;;;;5007965;28;20470;-64
2022/08/24 06:23:06;;;;;;;5.10;4.60;;;15.30;90.40;;;;;;5010887;28;20537;-64
2022/08/24 06:28:19;;;;;;;5.50;4.60;;;15.60;90.20;;;;;;5005080;28;20485;-65
2022/08/24 06:30:46;;;;;;;6.00;5.30;;;15.80;90.10;;;;;;5008750;28;20495;-65
2022/08/24 06:33:13;;;;;;;6.17;5.57;;;15.90;90.10;;;;;;5009466;28;20486;-64
2022/08/24 06:35:40;;;;;;;9.13;5.40;;;16.10;90.10;;;;;;5003965;28;20531;-66
2022/08/24 06:38:07;;;;;;;8.37;5.80;;;16.20;90.20;;;;;;4994886;28;20446;-64
2022/08/24 06:40:34;;;;;;;5.80;4.43;;;16.40;90.00;;;;;;4994240;28;20487;-64
2022/08/24 06:43:03;;;;;;;4.80;4.00;;;16.50;89.40;;;;;;4994587;28;20775;-64
2022/08/24 06:45:32;;;;;;;4.70;3.87;;;16.60;89.00;;;;;;4994540;28;20906;-64
2022/08/24 06:47:59;;;;;;;6.70;4.20;;;16.80;88.60;;;;;;4993441;28;20443;-64
2022/08/24 06:50:26;;;;;;;6.70;5.20;;;16.90;88.00;;;;;;4997114;28;20784;-64
2022/08/24 06:52:53;;;;;;;5.63;4.10;;;17.00;87.10;;;;;;4996585;28;20582;-64
2022/08/24 06:55:20;;;;;;;4.93;4.33;;;17.20;86.30;;;;;;4996579;28;20922;-64
2022/08/24 06:57:47;;;;;;;4.20;3.80;;;17.30;85.80;;;;;;4998519;28;20472;-65
2022/08/24 07:00:16;;;;;;;4.43;4.03;;;17.40;85.40;;;;;;4998357;28;20541;-65
2022/08/24 07:02:44;;;;;;;5.10;3.93;;;17.60;84.60;;;;;;4998361;28;20443;-65
2022/08/24 07:05:11;;;;;;;7.20;3.70;;;17.70;83.80;;;;;;4996488;28;20456;-65
2022/08/24 07:07:38;;;;;;;4.93;3.07;;;17.90;82.50;;;;;;4997542;28;20487;-64
2022/08/24 07:10:07;;;;;;;3.40;3.03;;;17.90;79.50;;;;;;4998723;28;21014;-65
2022/08/24 07:12:35;;;;;;;5.93;3.90;;;18.00;79.80;;;;;;4998784;28;20897;-65
2022/08/24 07:15:02;;;;;;;4.30;3.17;;;18.20;80.50;;;;;;4998628;28;20448;-65
2022/08/24 07:17:29;;;;;;;4.50;3.40;;;18.30;80.80;;;;;;4996103;28;20524;-65
2022/08/24 07:19:57;;;;;;;5.00;4.50;;;18.50;81.20;;;;;;4998761;28;20478;-64
2022/08/24 07:22:24;;;;;;;5.27;3.80;;;18.70;80.40;;;;;;4996189;28;20453;-65
2022/08/24 07:24:51;;;;;;;4.07;3.60;;;18.90;80.00;;;;;;4999045;28;20525;-65
2022/08/24 07:27:18;;;;;;;8.00;5.37;;;19.00;77.20;;;;;;4998489;28;20474;-65
2022/08/24 07:29:45;;;;;;;6.30;3.53;;;19.20;78.20;;;;;;5001038;28;20530;-65
2022/08/24 07:32:12;;;;;;;6.50;3.10;;;19.30;78.30;;;;;;5000481;28;21076;-66
2022/08/24 07:34:39;;;;;;;3.37;3.07;;;19.50;78.40;;;;;;5001106;28;20772;-64
2022/08/24 07:37:07;;;;;;;5.63;3.50;;;19.70;78.10;;;;;;4996194;28;20483;-65
2022/08/24 07:39:34;;;;;;;4.47;2.80;;;20.00;78.20;;;;;;4998239;28;20455;-65
2022/08/24 07:42:01;;;;;;;5.63;2.50;;;20.40;79.50;;;;;;4997967;28;20448;-65
2022/08/24 07:44:29;;;;;;;3.70;3.30;;;21.00;77.20;;;;;;4997398;28;20842;-65
2022/08/24 07:46:57;;;;;;;4.73;3.07;;;21.50;76.80;;;;;;4997764;28;20456;-65
2022/08/24 07:49:24;;;;;;;4.10;2.73;;;22.10;77.60;;;;;;5001819;28;20521;-65
2022/08/24 07:51:52;;;;;;;4.70;3.10;;;22.70;75.80;;;;;;4996072;28;20877;-65
2022/08/24 07:54:20;;;;;;;3.90;2.17;;;23.40;65.70;;;;;;4997910;28;20852;-65
2022/08/24 07:56:49;;;;;;;3.60;2.83;;;23.70;68.40;;;;;;4996197;28;20536;-65
2022/08/24 07:59:16;;;;;;;4.00;2.93;;;24.30;64.40;;;;;;4994986;28;20443;-66
2022/08/24 08:01:43;;;;;;;3.77;2.63;;;24.90;64.10;;;;;;5003409;28;20478;-66
2022/08/24 08:04:10;;;;;;;4.43;2.77;;;25.40;65.20;;;;;;5003880;28;20479;-66
2022/08/24 08:06:37;;;;;;;5.83;2.33;;;26.00;57.60;;;;;;5002950;28;20471;-65
2022/08/24 08:09:05;;;;;;;3.40;2.27;;;26.50;56.70;;;;;;5004245;28;20478;-65
2022/08/24 08:11:33;;;;;;;5.40;2.40;;;27.00;57.00;;;;;;5004369;28;20914;-65
2022/08/24 08:14:00;;;;;;;4.97;2.40;;;27.50;51.40;;;;;;5004726;28;20851;-65
2022/08/24 08:16:27;;;;;;;2.80;2.10;;;27.70;51.10;;;;;;5003548;28;20482;-66
2022/08/24 08:18:55;;;;;;;3.60;2.13;;;28.20;51.90;;;;;;5002988;28;20526;-65
2022/08/24 08:24:16;;;;;;;4.03;2.20;;;29.10;48.70;;;;;;5004342;28;20460;-65
2022/08/24 08:26:46;;;;;;;9.77;2.30;;;29.50;47.00;;;;;;5004039;28;20470;-65
2022/08/24 08:29:14;;;;;;;6.10;2.40;;;29.80;44.80;;;;;;5005622;28;20877;-66
2022/08/24 08:31:41;;;;;;;7.33;2.70;;;30.30;44.00;;;;;;5005814;28;20448;-66
2022/08/24 08:34:09;;;;;;;3.20;2.17;;;30.50;41.10;;;;;;5005976;28;20862;-65
2022/08/24 08:36:39;;;;;;;4.93;2.40;;;30.80;42.60;;;;;;5004757;28;20451;-65
2022/08/24 08:39:07;;;;;;;4.40;2.00;;;31.20;41.50;;;;;;5006670;28;20438;-65
2022/08/24 08:42:06;;;;;;;6.10;2.17;;;31.40;40.60;;;;;;5002670;28;20546;-66
2022/08/24 08:44:50;;;;;;;4.30;1.90;;;31.60;39.80;;;;;;4949041;28;20804;-65
2022/08/24 08:47:32;;;;;;;4.60;2.30;;;32.00;39.30;;;;;;4993452;28;20442;-66
2022/08/24 08:50:07;;;;;;;4.20;2.07;;;32.30;37.60;;;;;;4991943;28;20432;-65
2022/08/24 08:53:09;;;;;;;5.20;2.37;;;32.60;38.10;;;;;;4995357;28;20480;-65
2022/08/24 08:55:42;;;;;;;2.83;2.10;;;32.90;36.10;;;;;;4991271;28;21008;-65
2022/08/24 08:58:25;;;;;;;4.07;2.47;;;33.20;36.90;;;;;;5001795;28;20471;-65
2022/08/24 09:01:02;;;;;;;3.60;2.37;;;33.60;35.60;;;;;;5006803;28;20443;-65
2022/08/24 09:04:03;;;;;;;3.63;2.50;;;33.70;32.90;;;;;;5006552;28;20527;-65
2022/08/24 09:06:44;;;;;;;4.00;2.33;;;33.70;34.10;;;;;;5003509;28;21181;-65
2022/08/24 09:09:25;;;;;;;4.57;2.00;;;33.90;32.60;;;;;;4997423;28;20482;-66
2022/08/24 09:12:08;;;;;;;4.30;2.33;;;34.10;33.40;;;;;;4996502;28;20443;-65
2022/08/24 09:15:09;;;;;;;4.63;2.67;;;34.20;31.60;;;;;;4997868;28;20496;-65
2022/08/24 09:18:11;;;;;;;3.60;2.50;;;34.40;32.40;;;;;;5005332;28;20484;-66
2022/08/24 09:21:00;;;;;;;4.83;2.33;;;34.60;31.80;;;;;;5005741;28;20530;-65
2022/08/24 09:23:36;;;;;;;4.10;1.97;;;35.00;28.40;;;;;;5014649;28;20640;-66
2022/08/24 09:26:09;;;;;;;2.80;1.67;;;35.10;30.10;;;;;;5011276;28;20524;-66
2022/08/24 09:28:43;;;;;;;4.37;1.80;;;35.40;30.90;;;;;;5002533;28;20479;-65
2022/08/24 09:31:35;;;;;;;4.23;2.40;;;35.40;28.20;;;;;;4996131;28;20498;-65
2022/08/24 09:34:16;;;;;;;3.23;1.90;;;35.60;29.00;;;;;;4992139;28;20493;-66
2022/08/24 09:36:55;;;;;;;4.33;2.03;;;35.80;28.60;;;;;;4995582;28;20538;-65
2022/08/24 09:39:37;;;;;;;2.90;2.00;;;36.10;28.90;;;;;;4995687;28;20478;-65
2022/08/24 09:42:47;;;;;;;3.23;2.10;;;36.30;28.10;;;;;;4991966;28;20443;-65
2022/08/24 09:45:46;;;;;;;2.50;1.60;;;36.30;27.10;;;;;;4992830;28;20458;-65
2022/08/24 09:48:49;;;;;;;3.63;1.87;;;36.10;27.50;;;;;;4973190;28;20436;-66
2022/08/24 09:51:50;;;;;;;3.10;2.00;;;36.20;28.00;;;;;;4974569;28;20526;-65
2022/08/24 09:55:02;;;;;;;6.50;3.00;;;36.30;28.10;;;;;;4971766;28;20486;-66
2022/08/24 09:57:43;;;;;;;6.07;3.00;;;36.50;27.20;;;;;;4978785;28;20466;-66
2022/08/24 10:00:16;;;;;;;3.23;2.40;;;36.50;26.80;;;;;;4998558;28;20439;-66
2022/08/24 10:02:56;;;;;;;6.83;2.53;;;36.50;28.20;;;;;;4999120;28;20515;-66
2022/08/24 10:05:30;;;;;;;3.43;2.20;;;36.60;27.00;;;;;;4999715;28;20506;-66
2022/08/24 10:08:06;;;;;;;4.10;2.77;;;36.50;26.50;;;;;;4999116;28;20444;-65
2022/08/24 10:10:47;;;;;;;7.50;2.27;;;36.30;27.00;;;;;;5009160;28;20446;-65
2022/08/24 10:13:25;;;;;;;4.40;2.07;;;36.20;27.10;;;;;;5015573;28;20439;-65
2022/08/24 10:16:13;;;;;;;3.33;2.20;;;36.00;27.10;;;;;;5015677;28;20439;-66
2022/08/24 10:18:53;;;;;;;3.60;2.00;;;35.60;27.60;;;;;;5015712;28;20474;-66
2022/08/24 10:21:34;;;;;;;5.40;2.43;;;35.60;27.10;;;;;;5015204;28;20439;-66
2022/08/24 10:24:35;;;;;;;6.57;2.67;;;35.40;26.20;;;;;;5014864;28;20494;-66
2022/08/24 10:27:17;;;;;;;6.13;1.97;;;35.10;27.30;;;;;;5015089;28;20446;-66
2022/08/24 10:30:11;;;;;;;4.63;2.10;;;35.10;27.60;;;;;;5015534;28;20834;-66
2022/08/24 10:32:47;;;;;;;3.30;1.93;;;34.90;28.10;;;;;;5014618;28;20529;-65
2022/08/24 10:35:17;;;;;;;6.40;3.03;;;34.70;28.40;;;;;;5014924;28;20449;-66
2022/08/24 10:41:18;;;;;;;5.30;2.40;;;34.40;28.10;;;;;;5015254;28;20928;-65
2022/08/24 10:44:11;;;;;;;2.93;1.70;;;34.10;28.30;;;;;;5015088;28;20540;-65
2022/08/24 10:46:50;;;;;;;3.47;2.07;;;33.90;27.50;;;;;;5012919;28;20450;-65
2022/08/24 10:49:52;;;;;;;2.70;2.10;;;33.60;27.50;;;;;;5014702;28;20435;-65
2022/08/24 10:52:48;;;;;;;3.20;2.00;;;33.30;27.30;;;;;;5014925;28;20431;-65
2022/08/24 10:55:20;;;;;;;3.40;2.33;;;33.00;27.90;;;;;;4989455;28;20793;-66
2022/08/24 10:58:24;;;;;;;4.40;1.80;;;33.00;28.40;;;;;;5014826;28;20526;-65
2022/08/24 11:00:53;;;;;;;2.90;1.53;;;32.70;28.40;;;;;;5014585;28;20481;-65
2022/08/24 11:03:33;;;;;;;2.63;1.73;;;32.50;28.50;;;;;;5011340;28;21322;-66
2022/08/24 11:06:04;;;;;;;3.47;2.03;;;32.40;29.10;;;;;;4994436;28;20424;-66
2022/08/24 11:08:32;;;;;;;6.03;2.30;;;32.40;29.60;;;;;;4995098;28;20510;-65
2022/08/24 11:11:10;;;;;;;2.30;1.70;;;32.40;29.10;;;;;;4992585;28;20447;-67
2022/08/24 11:13:51;;;;;;;2.47;1.50;;;32.40;28.70;;;;;;4994249;28;20497;-66
2022/08/24 11:16:25;;;;;;;4.17;1.70;;;32.20;28.60;;;;;;4993998;28;20443;-65
2022/08/24 11:18:54;;;;;;;2.80;1.80;;;32.20;29.40;;;;;;4994382;28;20447;-65
2022/08/24 11:21:39;;;;;;;4.03;1.97;;;32.00;29.80;;;;;;4994019;28;20450;-66
2022/08/24 11:24:24;;;;;;;2.70;1.50;;;31.90;29.20;;;;;;4994899;28;20490;-65
2022/08/24 11:26:55;;;;;;;3.43;1.47;;;31.90;29.10;;;;;;4994190;28;20478;-65
2022/08/24 11:29:30;;;;;;;2.77;1.83;;;32.00;28.00;;;;;;4993588;28;20934;-65
2022/08/24 11:31:59;;;;;;;6.97;2.40;;;31.90;28.80;;;;;;4984865;28;20642;-66
2022/08/24 11:34:40;;;;;;;3.63;1.77;;;31.90;29.60;;;;;;4986410;28;20933;-69
2022/08/24 11:37:15;;;;;;;4.57;1.90;;;31.80;29.20;;;;;;4990723;28;20443;-66
2022/08/24 11:39:42;;;;;;;4.40;1.70;;;31.80;27.10;;;;;;4993952;28;20440;-65
2022/08/24 11:42:18;;;;;;;3.70;1.90;;;31.80;28.10;;;;;;4994264;28;20471;-66
2022/08/24 11:44:54;;;;;;;5.10;1.73;;;31.70;27.40;;;;;;4974872;28;20488;-66
2022/08/24 11:47:49;;;;;;;5.03;2.10;;;31.60;28.30;;;;;;4985501;28;20846;-65
2022/08/24 11:50:34;;;;;;;2.67;1.47;;;31.60;28.70;;;;;;4987971;28;20443;-65
2022/08/24 11:53:13;;;;;;;3.20;2.03;;;31.60;31.10;;;;;;4992049;28;20517;-65
2022/08/24 11:55:49;;;;;;;3.70;1.43;;;31.50;28.60;;;;;;4993375;28;20509;-66
2022/08/24 11:58:29;;;;;;;4.10;1.80;;;31.50;27.50;;;;;;4993424;28;20531;-65
2022/08/24 12:01:04;;;;;;;5.53;1.60;;;31.40;28.30;;;;;;4993937;28;20471;-65
2022/08/24 12:03:42;;;;;;;4.63;1.70;;;31.40;28.40;;;;;;4993656;28;20487;-65
2022/08/24 12:06:22;;;;;;;2.90;1.90;;;31.40;27.70;;;;;;4994291;28;20479;-65
2022/08/24 12:08:54;;;;;;;3.10;1.73;;;31.40;29.10;;;;;;4993420;28;20458;-65
2022/08/24 12:11:32;;;;;;;4.40;2.70;;;31.40;31.60;;;;;;4993489;28;20479;-65
2022/08/24 12:14:05;;;;;;;3.00;1.83;;;31.40;31.70;;;;;;4993292;28;20941;-66
2022/08/24 12:16:41;;;;;;;3.30;2.27;;;31.50;31.60;;;;;;4993146;28;20538;-65
2022/08/24 12:19:15;;;;;;;2.73;1.80;;;31.50;31.20;;;;;;4992479;28;20521;-65
2022/08/24 12:21:46;;;;;;;3.97;2.07;;;31.60;31.70;;;;;;4993300;28;20432;-66
2022/08/24 12:24:18;;;;;;;4.07;2.00;;;31.60;33.10;;;;;;4993171;28;20537;-65
2022/08/24 12:26:48;;;;;;;5.10;2.47;;;31.60;34.20;;;;;;4993152;28;20993;-65
2022/08/24 12:29:22;;;;;;;4.13;2.50;;;31.60;34.20;;;;;;4993268;28;20428;-65
2022/08/24 12:31:55;;;;;;;4.70;1.80;;;31.70;32.80;;;;;;4993291;28;20443;-65
2022/08/24 12:34:29;;;;;;;2.50;1.70;;;31.60;32.50;;;;;;4991953;28;20851;-65
2022/08/24 12:37:03;;;;;;;3.80;2.10;;;31.60;31.60;;;;;;4993376;28;20479;-65
2022/08/24 12:39:39;;;;;;;3.87;1.63;;;31.70;32.60;;;;;;4992210;28;20606;-66
2022/08/24 12:42:14;;;;;;;3.73;1.80;;;31.60;33.00;;;;;;4992910;28;20467;-65
2022/08/24 12:44:48;;;;;;;7.30;2.03;;;31.60;33.70;;;;;;4993876;28;20491;-65
2022/08/24 12:47:25;;;;;;;3.23;1.90;;;31.50;32.80;;;;;;4997051;28;20513;-65
2022/08/24 12:49:57;;;;;;;2.93;1.97;;;31.50;33.00;;;;;;4997123;28;20438;-65
2022/08/24 12:53:08;;;;;;;2.73;1.57;;;31.60;31.50;;;;;;4997352;28;20454;-65
2022/08/24 12:56:04;;;;;;;2.57;1.83;;;31.70;31.10;;;;;;4997586;28;20462;-65
2022/08/24 12:58:50;;;;;;;5.90;2.40;;;31.70;32.00;;;;;;4971633;28;21031;-65
2022/08/24 13:01:19;;;;;;;3.30;1.93;;;31.70;31.50;;;;;;4997441;28;20837;-65
2022/08/24 13:04:02;;;;;;;3.47;2.07;;;31.60;31.30;;;;;;4997403;28;20577;-65
2022/08/24 13:06:38;;;;;;;2.40;1.70;;;31.50;33.00;;;;;;4997171;28;20937;-65
2022/08/24 13:09:11;;;;;;;3.93;2.03;;;31.50;33.60;;;;;;4997373;28;20479;-65
2022/08/24 13:11:38;;;;;;;2.60;1.80;;;31.40;32.30;;;;;;4997208;28;20443;-65
2022/08/24 13:14:16;;;;;;;2.53;1.63;;;31.30;33.20;;;;;;4997201;28;20541;-65
2022/08/24 13:16:49;;;;;;;2.40;1.53;;;31.30;32.80;;;;;;4997101;28;20930;-65
2022/08/24 13:19:33;;;;;;;3.30;2.17;;;31.30;32.20;;;;;;4997079;28;20436;-65
2022/08/24 13:22:21;;;;;;;2.73;1.90;;;31.20;31.60;;;;;;4997118;28;20858;-65
2022/08/24 13:25:00;;;;;;;2.60;1.70;;;31.10;31.40;;;;;;4996413;28;20498;-66